sensor_id;sensor_type;location;lat;lon;timestamp;noise_LAeq;noise_LA_min;noise_LA_max;noise_LA01;noise_LA95
66458;Laerm;56835;52.198;4.826;2023-04-24T00:00:06;53.21;51.82;54.54;;
66458;Laerm;56835;52.198;4.826;2023-04-24T00:00:19;53.25;51.46;54.66;;
66458;Laerm;56835;52.198;4.826;2023-04-24T00:00:29;53.18;51.55;54.58;;
66458;Laerm;56835;52.198;4.826;2023-04-24T00:00:40;53.22;51.70;54.42;;
66458;Laerm;56835;52.198;4.826;2023-04-24T00:00:50;53.20;51.61;54.48;;
66458;Laerm;56835;52.198;4.826;2023-04-24T00:01:02;53.18;50.88;54.67;;
66458;Laerm;56835;52.198;4.826;2023-04-24T00:01:12;53.22;51.15;54.52;;
66458;Laerm;56835;52.198;4.826;2023-04-24T00:01:23;53.23;51.40;54.80;;
66458;Laerm;56835;52.198;4.826;2023-04-24T00:01:33;53.13;51.48;54.49;;
66458;Laerm;56835;52.198;4.826;2023-04-24T00:01:44;53.22;51.58;54.59;;
66458;Laerm;56835;52.198;4.826;2023-04-24T00:01:54;53.35;51.78;54.71;;
66458;Laerm;56835;52.198;4.826;2023-04-24T00:02:05;53.28;51.65;54.45;;
66458;Laerm;56835;52.198;4.826;2023-04-24T00:02:16;53.25;51.42;54.77;;
66458;Laerm;56835;52.198;4.826;2023-04-24T00:02:27;53.17;51.86;54.55;;
66458;Laerm;56835;52.198;4.826;2023-04-24T00:02:37;53.19;51.52;54.54;;
66458;Laerm;56835;52.198;4.826;2023-04-24T00:02:48;53.21;51.47;54.59;;
66458;Laerm;56835;52.198;4.826;2023-04-24T00:02:58;53.16;51.64;54.59;;
66458;Laerm;56835;52.198;4.826;2023-04-24T00:03:09;53.20;51.73;54.85;;
66458;Laerm;56835;52.198;4.826;2023-04-24T00:03:21;53.19;51.27;54.48;;
66458;Laerm;56835;52.198;4.826;2023-04-24T00:03:32;53.14;51.43;54.49;;
66458;Laerm;56835;52.198;4.826;2023-04-24T00:03:42;53.22;51.58;54.62;;
66458;Laerm;56835;52.198;4.826;2023-04-24T00:03:53;53.21;51.71;55.33;;
66458;Laerm;56835;52.198;4.826;2023-04-24T00:04:03;53.18;51.71;54.67;;
66458;Laerm;56835;52.198;4.826;2023-04-24T00:04:13;53.19;51.12;54.52;;
66458;Laerm;56835;52.198;4.826;2023-04-24T00:04:26;53.23;51.48;55.11;;
66458;Laerm;56835;52.198;4.826;2023-04-24T00:04:37;53.20;51.50;54.56;;
66458;Laerm;56835;52.198;4.826;2023-04-24T00:04:50;53.20;51.76;54.76;;
66458;Laerm;56835;52.198;4.826;2023-04-24T00:05:01;53.18;51.26;54.40;;
66458;Laerm;56835;52.198;4.826;2023-04-24T00:05:14;53.22;51.47;54.70;;
66458;Laerm;56835;52.198;4.826;2023-04-24T00:05:25;53.19;51.29;54.58;;
66458;Laerm;56835;52.198;4.826;2023-04-24T00:05:35;53.18;51.27;54.63;;
66458;Laerm;56835;52.198;4.826;2023-04-24T00:05:46;53.19;51.70;54.35;;
66458;Laerm;56835;52.198;4.826;2023-04-24T00:05:56;53.19;51.48;54.61;;
66458;Laerm;56835;52.198;4.826;2023-04-24T00:06:08;53.15;51.34;54.61;;
66458;Laerm;56835;52.198;4.826;2023-04-24T00:06:19;53.35;51.86;54.75;;
66458;Laerm;56835;52.198;4.826;2023-04-24T00:06:29;53.31;51.68;54.90;;
66458;Laerm;56835;52.198;4.826;2023-04-24T00:06:43;53.18;51.32;54.50;;
66458;Laerm;56835;52.198;4.826;2023-04-24T00:06:53;53.22;51.22;54.44;;
66458;Laerm;56835;52.198;4.826;2023-04-24T00:07:10;53.18;51.45;54.61;;
66458;Laerm;56835;52.198;4.826;2023-04-24T00:07:20;53.16;50.77;54.49;;
66458;Laerm;56835;52.198;4.826;2023-04-24T00:07:31;53.27;51.48;55.10;;
66458;Laerm;56835;52.198;4.826;2023-04-24T00:07:41;53.23;51.70;54.68;;
66458;Laerm;56835;52.198;4.826;2023-04-24T00:07:52;53.21;51.33;54.41;;
66458;Laerm;56835;52.198;4.826;2023-04-24T00:08:02;53.16;51.63;55.22;;
66458;Laerm;56835;52.198;4.826;2023-04-24T00:08:12;53.19;51.66;54.76;;
66458;Laerm;56835;52.198;4.826;2023-04-24T00:08:23;53.21;51.26;54.51;;
66458;Laerm;56835;52.198;4.826;2023-04-24T00:08:34;53.19;51.70;54.44;;
66458;Laerm;56835;52.198;4.826;2023-04-24T00:08:44;53.18;51.59;54.36;;
66458;Laerm;56835;52.198;4.826;2023-04-24T00:08:55;53.19;51.94;54.68;;
66458;Laerm;56835;52.198;4.826;2023-04-24T00:09:05;53.16;51.31;54.78;;
66458;Laerm;56835;52.198;4.826;2023-04-24T00:09:15;53.25;51.65;54.75;;
66458;Laerm;56835;52.198;4.826;2023-04-24T00:09:26;53.20;51.85;54.72;;
66458;Laerm;56835;52.198;4.826;2023-04-24T00:09:36;53.17;51.34;54.61;;
66458;Laerm;56835;52.198;4.826;2023-04-24T00:09:46;53.15;51.40;54.56;;
66458;Laerm;56835;52.198;4.826;2023-04-24T00:09:57;53.15;51.24;54.34;;
66458;Laerm;56835;52.198;4.826;2023-04-24T00:10:07;53.26;51.58;54.89;;
66458;Laerm;56835;52.198;4.826;2023-04-24T00:10:18;53.18;51.86;54.93;;
66458;Laerm;56835;52.198;4.826;2023-04-24T00:10:28;53.19;51.41;54.43;;
66458;Laerm;56835;52.198;4.826;2023-04-24T00:10:40;53.17;51.62;54.75;;
66458;Laerm;56835;52.198;4.826;2023-04-24T00:10:51;53.16;51.23;54.75;;
66458;Laerm;56835;52.198;4.826;2023-04-24T00:11:02;53.24;51.59;54.83;;
66458;Laerm;56835;52.198;4.826;2023-04-24T00:11:13;53.18;51.84;54.60;;
66458;Laerm;56835;52.198;4.826;2023-04-24T00:11:23;53.16;51.54;54.64;;
66458;Laerm;56835;52.198;4.826;2023-04-24T00:11:33;53.20;51.52;54.62;;
66458;Laerm;56835;52.198;4.826;2023-04-24T00:11:43;53.22;51.52;54.43;;
66458;Laerm;56835;52.198;4.826;2023-04-24T00:11:54;53.22;51.40;54.59;;
66458;Laerm;56835;52.198;4.826;2023-04-24T00:12:04;53.20;51.62;54.48;;
66458;Laerm;56835;52.198;4.826;2023-04-24T00:12:15;53.14;51.64;54.23;;
66458;Laerm;56835;52.198;4.826;2023-04-24T00:12:25;53.19;51.60;54.40;;
66458;Laerm;56835;52.198;4.826;2023-04-24T00:12:36;53.19;51.12;54.42;;
66458;Laerm;56835;52.198;4.826;2023-04-24T00:12:46;53.15;51.73;54.55;;
66458;Laerm;56835;52.198;4.826;2023-04-24T00:12:56;53.11;51.64;54.65;;
66458;Laerm;56835;52.198;4.826;2023-04-24T00:13:06;53.20;51.67;54.66;;
66458;Laerm;56835;52.198;4.826;2023-04-24T00:13:17;53.16;51.59;54.55;;
66458;Laerm;56835;52.198;4.826;2023-04-24T00:13:27;53.21;51.82;54.56;;
66458;Laerm;56835;52.198;4.826;2023-04-24T00:13:38;53.15;51.75;54.46;;
66458;Laerm;56835;52.198;4.826;2023-04-24T00:13:48;53.18;51.39;54.96;;
66458;Laerm;56835;52.198;4.826;2023-04-24T00:13:59;53.15;51.31;54.41;;
66458;Laerm;56835;52.198;4.826;2023-04-24T00:14:09;53.14;51.62;54.51;;
66458;Laerm;56835;52.198;4.826;2023-04-24T00:14:19;53.23;51.91;54.37;;
66458;Laerm;56835;52.198;4.826;2023-04-24T00:14:30;53.15;51.16;54.67;;
66458;Laerm;56835;52.198;4.826;2023-04-24T00:14:41;53.14;51.46;54.71;;
66458;Laerm;56835;52.198;4.826;2023-04-24T00:14:51;53.16;51.06;54.53;;
66458;Laerm;56835;52.198;4.826;2023-04-24T00:15:02;53.22;51.47;54.81;;
66458;Laerm;56835;52.198;4.826;2023-04-24T00:15:12;53.21;51.80;54.57;;
66458;Laerm;56835;52.198;4.826;2023-04-24T00:15:22;53.18;51.57;54.93;;
66458;Laerm;56835;52.198;4.826;2023-04-24T00:15:33;53.16;51.46;54.55;;
66458;Laerm;56835;52.198;4.826;2023-04-24T00:15:43;53.17;51.72;54.39;;
66458;Laerm;56835;52.198;4.826;2023-04-24T00:15:54;53.22;51.72;54.58;;
66458;Laerm;56835;52.198;4.826;2023-04-24T00:16:04;53.23;51.80;54.47;;
66458;Laerm;56835;52.198;4.826;2023-04-24T00:16:15;53.22;51.57;54.82;;
66458;Laerm;56835;52.198;4.826;2023-04-24T00:16:25;53.18;51.39;54.63;;
66458;Laerm;56835;52.198;4.826;2023-04-24T00:16:35;53.24;51.38;54.54;;
66458;Laerm;56835;52.198;4.826;2023-04-24T00:16:46;53.19;51.58;54.55;;
66458;Laerm;56835;52.198;4.826;2023-04-24T00:16:56;53.24;51.58;54.42;;
66458;Laerm;56835;52.198;4.826;2023-04-24T00:17:06;53.18;51.23;54.74;;
66458;Laerm;56835;52.198;4.826;2023-04-24T00:17:16;53.19;51.09;54.85;;
66458;Laerm;56835;52.198;4.826;2023-04-24T00:17:30;53.14;51.21;54.56;;
66458;Laerm;56835;52.198;4.826;2023-04-24T00:17:40;53.21;51.41;54.42;;
66458;Laerm;56835;52.198;4.826;2023-04-24T00:17:50;53.13;51.84;54.50;;
66458;Laerm;56835;52.198;4.826;2023-04-24T00:18:01;53.17;51.30;54.59;;
66458;Laerm;56835;52.198;4.826;2023-04-24T00:18:12;53.13;51.74;54.30;;
66458;Laerm;56835;52.198;4.826;2023-04-24T00:18:22;53.12;51.40;54.37;;
66458;Laerm;56835;52.198;4.826;2023-04-24T00:18:32;53.22;51.66;54.64;;
66458;Laerm;56835;52.198;4.826;2023-04-24T00:18:43;53.28;51.61;54.51;;
66458;Laerm;56835;52.198;4.826;2023-04-24T00:18:54;53.16;51.65;54.70;;
66458;Laerm;56835;52.198;4.826;2023-04-24T00:19:05;53.14;51.16;54.43;;
66458;Laerm;56835;52.198;4.826;2023-04-24T00:19:16;53.16;51.71;54.62;;
66458;Laerm;56835;52.198;4.826;2023-04-24T00:19:26;53.16;51.50;54.76;;
66458;Laerm;56835;52.198;4.826;2023-04-24T00:19:37;53.19;51.61;54.72;;
66458;Laerm;56835;52.198;4.826;2023-04-24T00:19:48;53.23;51.72;54.40;;
66458;Laerm;56835;52.198;4.826;2023-04-24T00:19:58;53.21;51.79;54.69;;
66458;Laerm;56835;52.198;4.826;2023-04-24T00:20:08;53.23;51.69;54.46;;
66458;Laerm;56835;52.198;4.826;2023-04-24T00:20:20;53.25;51.49;54.59;;
66458;Laerm;56835;52.198;4.826;2023-04-24T00:20:31;53.18;51.61;54.44;;
66458;Laerm;56835;52.198;4.826;2023-04-24T00:20:45;53.21;51.48;54.47;;
66458;Laerm;56835;52.198;4.826;2023-04-24T00:20:56;53.18;51.28;54.49;;
66458;Laerm;56835;52.198;4.826;2023-04-24T00:21:06;53.14;51.71;54.63;;
66458;Laerm;56835;52.198;4.826;2023-04-24T00:21:17;53.14;51.85;54.54;;
66458;Laerm;56835;52.198;4.826;2023-04-24T00:21:27;53.16;51.66;54.37;;
66458;Laerm;56835;52.198;4.826;2023-04-24T00:21:38;53.16;51.62;54.49;;
66458;Laerm;56835;52.198;4.826;2023-04-24T00:21:48;53.15;51.48;54.29;;
66458;Laerm;56835;52.198;4.826;2023-04-24T00:22:01;53.17;51.12;54.34;;
66458;Laerm;56835;52.198;4.826;2023-04-24T00:22:12;53.23;51.10;54.84;;
66458;Laerm;56835;52.198;4.826;2023-04-24T00:22:26;53.18;51.67;54.44;;
66458;Laerm;56835;52.198;4.826;2023-04-24T00:22:36;53.14;51.39;54.74;;
66458;Laerm;56835;52.198;4.826;2023-04-24T00:22:47;53.17;51.68;54.43;;
66458;Laerm;56835;52.198;4.826;2023-04-24T00:22:57;53.26;51.75;54.67;;
66458;Laerm;56835;52.198;4.826;2023-04-24T00:23:07;53.26;51.92;54.35;;
66458;Laerm;56835;52.198;4.826;2023-04-24T00:23:18;53.21;51.76;54.47;;
66458;Laerm;56835;52.198;4.826;2023-04-24T00:23:28;53.27;51.05;54.62;;
66458;Laerm;56835;52.198;4.826;2023-04-24T00:23:38;53.19;51.54;54.32;;
66458;Laerm;56835;52.198;4.826;2023-04-24T00:23:48;53.24;51.82;54.52;;
66458;Laerm;56835;52.198;4.826;2023-04-24T00:23:59;53.16;51.49;54.44;;
66458;Laerm;56835;52.198;4.826;2023-04-24T00:24:09;53.23;51.74;55.06;;
66458;Laerm;56835;52.198;4.826;2023-04-24T00:24:20;53.18;51.59;54.43;;
66458;Laerm;56835;52.198;4.826;2023-04-24T00:24:31;53.20;51.60;54.41;;
66458;Laerm;56835;52.198;4.826;2023-04-24T00:24:41;53.24;51.11;54.54;;
66458;Laerm;56835;52.198;4.826;2023-04-24T00:24:51;53.20;51.66;54.76;;
66458;Laerm;56835;52.198;4.826;2023-04-24T00:25:01;53.21;51.84;54.86;;
66458;Laerm;56835;52.198;4.826;2023-04-24T00:25:12;53.17;51.58;54.29;;
66458;Laerm;56835;52.198;4.826;2023-04-24T00:25:22;53.18;50.84;54.51;;
66458;Laerm;56835;52.198;4.826;2023-04-24T00:25:32;53.22;51.27;54.69;;
66458;Laerm;56835;52.198;4.826;2023-04-24T00:25:42;53.24;51.20;54.68;;
66458;Laerm;56835;52.198;4.826;2023-04-24T00:25:53;53.28;51.43;54.72;;
66458;Laerm;56835;52.198;4.826;2023-04-24T00:26:03;53.22;51.51;54.59;;
66458;Laerm;56835;52.198;4.826;2023-04-24T00:26:13;53.16;51.76;54.50;;
66458;Laerm;56835;52.198;4.826;2023-04-24T00:26:23;53.14;51.37;54.42;;
66458;Laerm;56835;52.198;4.826;2023-04-24T00:26:34;53.22;51.83;54.35;;
66458;Laerm;56835;52.198;4.826;2023-04-24T00:26:44;53.23;51.53;54.53;;
66458;Laerm;56835;52.198;4.826;2023-04-24T00:26:54;53.21;51.29;54.46;;
66458;Laerm;56835;52.198;4.826;2023-04-24T00:27:05;53.19;51.88;54.71;;
66458;Laerm;56835;52.198;4.826;2023-04-24T00:27:15;53.25;51.63;54.70;;
66458;Laerm;56835;52.198;4.826;2023-04-24T00:27:25;53.17;51.42;54.69;;
66458;Laerm;56835;52.198;4.826;2023-04-24T00:27:35;53.17;51.56;54.90;;
66458;Laerm;56835;52.198;4.826;2023-04-24T00:27:47;53.22;51.42;54.90;;
66458;Laerm;56835;52.198;4.826;2023-04-24T00:27:57;53.17;51.67;54.39;;
66458;Laerm;56835;52.198;4.826;2023-04-24T00:28:07;53.14;51.71;54.69;;
66458;Laerm;56835;52.198;4.826;2023-04-24T00:28:17;53.20;51.28;54.81;;
66458;Laerm;56835;52.198;4.826;2023-04-24T00:28:28;53.22;51.74;54.71;;
66458;Laerm;56835;52.198;4.826;2023-04-24T00:28:38;53.20;51.89;54.45;;
66458;Laerm;56835;52.198;4.826;2023-04-24T00:28:48;53.23;51.71;54.64;;
66458;Laerm;56835;52.198;4.826;2023-04-24T00:28:58;53.19;51.52;54.44;;
66458;Laerm;56835;52.198;4.826;2023-04-24T00:29:09;53.19;51.50;54.51;;
66458;Laerm;56835;52.198;4.826;2023-04-24T00:29:19;53.20;51.48;54.35;;
66458;Laerm;56835;52.198;4.826;2023-04-24T00:29:29;53.16;51.13;54.63;;
66458;Laerm;56835;52.198;4.826;2023-04-24T00:29:40;53.22;51.71;54.51;;
66458;Laerm;56835;52.198;4.826;2023-04-24T00:29:50;53.20;51.71;54.41;;
66458;Laerm;56835;52.198;4.826;2023-04-24T00:30:00;53.22;51.48;54.29;;
66458;Laerm;56835;52.198;4.826;2023-04-24T00:30:10;53.18;51.85;54.53;;
66458;Laerm;56835;52.198;4.826;2023-04-24T00:30:21;53.26;51.33;54.51;;
66458;Laerm;56835;52.198;4.826;2023-04-24T00:30:31;53.29;51.65;54.91;;
66458;Laerm;56835;52.198;4.826;2023-04-24T00:30:42;53.22;51.38;54.53;;
66458;Laerm;56835;52.198;4.826;2023-04-24T00:30:52;53.17;51.37;54.49;;
66458;Laerm;56835;52.198;4.826;2023-04-24T00:31:02;53.21;51.85;54.54;;
66458;Laerm;56835;52.198;4.826;2023-04-24T00:31:13;53.20;51.73;54.66;;
66458;Laerm;56835;52.198;4.826;2023-04-24T00:31:23;53.21;51.46;54.57;;
66458;Laerm;56835;52.198;4.826;2023-04-24T00:31:33;53.20;51.65;54.83;;
66458;Laerm;56835;52.198;4.826;2023-04-24T00:31:46;53.20;51.69;54.87;;
66458;Laerm;56835;52.198;4.826;2023-04-24T00:31:57;53.24;51.80;54.88;;
66458;Laerm;56835;52.198;4.826;2023-04-24T00:32:07;53.19;51.38;54.58;;
66458;Laerm;56835;52.198;4.826;2023-04-24T00:32:17;53.30;51.71;54.97;;
66458;Laerm;56835;52.198;4.826;2023-04-24T00:32:28;53.22;51.53;54.61;;
66458;Laerm;56835;52.198;4.826;2023-04-24T00:32:38;53.18;51.72;54.75;;
66458;Laerm;56835;52.198;4.826;2023-04-24T00:32:48;53.24;51.63;54.60;;
66458;Laerm;56835;52.198;4.826;2023-04-24T00:32:59;53.27;51.57;54.64;;
66458;Laerm;56835;52.198;4.826;2023-04-24T00:33:09;53.26;51.70;54.44;;
66458;Laerm;56835;52.198;4.826;2023-04-24T00:33:19;53.27;51.69;54.51;;
66458;Laerm;56835;52.198;4.826;2023-04-24T00:33:30;53.31;50.70;54.65;;
66458;Laerm;56835;52.198;4.826;2023-04-24T00:33:40;53.33;52.00;54.56;;
66458;Laerm;56835;52.198;4.826;2023-04-24T00:33:50;53.25;51.18;54.81;;
66458;Laerm;56835;52.198;4.826;2023-04-24T00:34:01;53.31;51.67;54.75;;
66458;Laerm;56835;52.198;4.826;2023-04-24T00:34:12;53.32;51.87;54.66;;
66458;Laerm;56835;52.198;4.826;2023-04-24T00:34:22;53.24;51.52;54.83;;
66458;Laerm;56835;52.198;4.826;2023-04-24T00:34:33;53.25;51.93;54.79;;
66458;Laerm;56835;52.198;4.826;2023-04-24T00:34:43;53.29;51.86;54.54;;
66458;Laerm;56835;52.198;4.826;2023-04-24T00:34:53;53.20;51.51;54.89;;
66458;Laerm;56835;52.198;4.826;2023-04-24T00:35:04;53.27;51.80;54.73;;
66458;Laerm;56835;52.198;4.826;2023-04-24T00:35:14;53.22;51.57;54.36;;
66458;Laerm;56835;52.198;4.826;2023-04-24T00:35:25;53.24;50.34;54.69;;
66458;Laerm;56835;52.198;4.826;2023-04-24T00:35:35;53.24;51.80;54.83;;
66458;Laerm;56835;52.198;4.826;2023-04-24T00:35:45;53.33;51.44;54.69;;
66458;Laerm;56835;52.198;4.826;2023-04-24T00:35:55;53.26;51.75;54.48;;
66458;Laerm;56835;52.198;4.826;2023-04-24T00:36:05;53.24;51.71;54.63;;
66458;Laerm;56835;52.198;4.826;2023-04-24T00:36:16;53.27;51.87;54.92;;
66458;Laerm;56835;52.198;4.826;2023-04-24T00:36:26;53.19;51.75;54.65;;
66458;Laerm;56835;52.198;4.826;2023-04-24T00:36:37;53.22;51.32;54.50;;
66458;Laerm;56835;52.198;4.826;2023-04-24T00:36:47;53.24;51.64;54.71;;
66458;Laerm;56835;52.198;4.826;2023-04-24T00:36:59;53.23;51.09;54.71;;
66458;Laerm;56835;52.198;4.826;2023-04-24T00:37:10;53.25;51.53;54.69;;
66458;Laerm;56835;52.198;4.826;2023-04-24T00:37:21;53.27;51.39;54.57;;
66458;Laerm;56835;52.198;4.826;2023-04-24T00:37:31;53.26;51.70;54.89;;
66458;Laerm;56835;52.198;4.826;2023-04-24T00:37:42;53.23;51.91;54.69;;
66458;Laerm;56835;52.198;4.826;2023-04-24T00:37:52;53.23;51.63;54.53;;
66458;Laerm;56835;52.198;4.826;2023-04-24T00:38:02;53.30;51.74;55.02;;
66458;Laerm;56835;52.198;4.826;2023-04-24T00:38:12;53.28;51.59;55.24;;
66458;Laerm;56835;52.198;4.826;2023-04-24T00:38:23;53.26;51.62;54.71;;
66458;Laerm;56835;52.198;4.826;2023-04-24T00:38:33;53.28;51.50;54.49;;
66458;Laerm;56835;52.198;4.826;2023-04-24T00:38:43;53.27;51.54;54.88;;
66458;Laerm;56835;52.198;4.826;2023-04-24T00:38:54;53.29;50.84;54.57;;
66458;Laerm;56835;52.198;4.826;2023-04-24T00:39:05;53.28;51.25;54.58;;
66458;Laerm;56835;52.198;4.826;2023-04-24T00:39:15;53.25;51.51;54.63;;
66458;Laerm;56835;52.198;4.826;2023-04-24T00:39:25;53.22;51.72;54.67;;
66458;Laerm;56835;52.198;4.826;2023-04-24T00:39:36;53.26;51.44;54.48;;
66458;Laerm;56835;52.198;4.826;2023-04-24T00:39:46;53.39;51.73;54.82;;
66458;Laerm;56835;52.198;4.826;2023-04-24T00:39:56;53.35;51.05;54.76;;
66458;Laerm;56835;52.198;4.826;2023-04-24T00:40:07;53.33;51.58;54.84;;
66458;Laerm;56835;52.198;4.826;2023-04-24T00:40:17;53.31;51.67;54.67;;
66458;Laerm;56835;52.198;4.826;2023-04-24T00:40:27;53.22;51.82;54.97;;
66458;Laerm;56835;52.198;4.826;2023-04-24T00:40:38;53.26;51.65;55.17;;
66458;Laerm;56835;52.198;4.826;2023-04-24T00:40:48;53.28;51.82;54.66;;
66458;Laerm;56835;52.198;4.826;2023-04-24T00:41:00;53.26;51.56;55.20;;
66458;Laerm;56835;52.198;4.826;2023-04-24T00:41:10;53.30;51.74;54.71;;
66458;Laerm;56835;52.198;4.826;2023-04-24T00:41:21;53.28;51.77;55.01;;
66458;Laerm;56835;52.198;4.826;2023-04-24T00:41:31;53.29;51.58;54.52;;
66458;Laerm;56835;52.198;4.826;2023-04-24T00:41:42;53.39;51.74;54.76;;
66458;Laerm;56835;52.198;4.826;2023-04-24T00:41:53;53.38;51.59;54.62;;
66458;Laerm;56835;52.198;4.826;2023-04-24T00:42:03;53.22;51.61;54.36;;
66458;Laerm;56835;52.198;4.826;2023-04-24T00:42:16;53.26;51.72;54.52;;
66458;Laerm;56835;52.198;4.826;2023-04-24T00:42:26;53.31;51.62;54.69;;
66458;Laerm;56835;52.198;4.826;2023-04-24T00:42:37;53.23;51.83;54.92;;
66458;Laerm;56835;52.198;4.826;2023-04-24T00:42:47;53.31;51.82;54.75;;
66458;Laerm;56835;52.198;4.826;2023-04-24T00:42:57;53.28;51.72;54.50;;
66458;Laerm;56835;52.198;4.826;2023-04-24T00:43:08;53.33;51.40;54.79;;
66458;Laerm;56835;52.198;4.826;2023-04-24T00:43:18;53.32;51.44;54.75;;
66458;Laerm;56835;52.198;4.826;2023-04-24T00:43:28;53.23;51.44;54.91;;
66458;Laerm;56835;52.198;4.826;2023-04-24T00:43:39;53.26;51.22;54.63;;
66458;Laerm;56835;52.198;4.826;2023-04-24T00:43:50;53.23;51.33;54.52;;
66458;Laerm;56835;52.198;4.826;2023-04-24T00:44:00;53.25;51.65;54.91;;
66458;Laerm;56835;52.198;4.826;2023-04-24T00:44:11;53.24;51.62;54.38;;
66458;Laerm;56835;52.198;4.826;2023-04-24T00:44:21;53.26;51.72;54.63;;
66458;Laerm;56835;52.198;4.826;2023-04-24T00:44:32;53.35;51.61;55.05;;
66458;Laerm;56835;52.198;4.826;2023-04-24T00:44:43;53.30;51.78;54.98;;
66458;Laerm;56835;52.198;4.826;2023-04-24T00:44:53;53.25;51.68;54.73;;
66458;Laerm;56835;52.198;4.826;2023-04-24T00:45:03;53.30;51.64;55.04;;
66458;Laerm;56835;52.198;4.826;2023-04-24T00:45:14;53.32;51.88;54.89;;
66458;Laerm;56835;52.198;4.826;2023-04-24T00:45:37;53.26;51.70;54.75;;
66458;Laerm;56835;52.198;4.826;2023-04-24T00:45:47;53.30;51.53;54.62;;
66458;Laerm;56835;52.198;4.826;2023-04-24T00:45:57;53.29;51.45;55.10;;
66458;Laerm;56835;52.198;4.826;2023-04-24T00:46:09;53.31;52.04;54.75;;
66458;Laerm;56835;52.198;4.826;2023-04-24T00:46:21;53.28;51.68;55.21;;
66458;Laerm;56835;52.198;4.826;2023-04-24T00:46:31;53.26;51.81;55.00;;
66458;Laerm;56835;52.198;4.826;2023-04-24T00:46:42;53.30;51.39;54.82;;
66458;Laerm;56835;52.198;4.826;2023-04-24T00:46:52;53.34;51.30;54.70;;
66458;Laerm;56835;52.198;4.826;2023-04-24T00:47:04;53.32;51.38;54.90;;
66458;Laerm;56835;52.198;4.826;2023-04-24T00:47:15;53.30;51.49;55.17;;
66458;Laerm;56835;52.198;4.826;2023-04-24T00:47:25;53.19;51.45;54.87;;
66458;Laerm;56835;52.198;4.826;2023-04-24T00:47:36;53.23;51.63;54.79;;
66458;Laerm;56835;52.198;4.826;2023-04-24T00:47:46;53.31;51.81;54.66;;
66458;Laerm;56835;52.198;4.826;2023-04-24T00:47:56;53.35;51.58;54.62;;
66458;Laerm;56835;52.198;4.826;2023-04-24T00:48:07;53.28;51.85;54.47;;
66458;Laerm;56835;52.198;4.826;2023-04-24T00:48:17;53.30;51.85;54.41;;
66458;Laerm;56835;52.198;4.826;2023-04-24T00:48:28;53.31;51.66;54.74;;
66458;Laerm;56835;52.198;4.826;2023-04-24T00:48:41;53.31;51.59;54.76;;
66458;Laerm;56835;52.198;4.826;2023-04-24T00:48:51;53.25;51.09;54.87;;
66458;Laerm;56835;52.198;4.826;2023-04-24T00:49:02;53.33;51.51;54.66;;
66458;Laerm;56835;52.198;4.826;2023-04-24T00:49:13;53.31;51.78;54.64;;
66458;Laerm;56835;52.198;4.826;2023-04-24T00:49:24;53.30;51.16;54.83;;
66458;Laerm;56835;52.198;4.826;2023-04-24T00:49:34;53.30;52.03;54.60;;
66458;Laerm;56835;52.198;4.826;2023-04-24T00:49:44;53.32;51.27;54.70;;
66458;Laerm;56835;52.198;4.826;2023-04-24T00:49:55;53.28;51.49;54.69;;
66458;Laerm;56835;52.198;4.826;2023-04-24T00:50:05;53.32;51.79;54.57;;
66458;Laerm;56835;52.198;4.826;2023-04-24T00:50:16;53.38;51.75;54.92;;
66458;Laerm;56835;52.198;4.826;2023-04-24T00:50:26;53.32;51.50;54.90;;
66458;Laerm;56835;52.198;4.826;2023-04-24T00:50:37;53.25;51.72;54.77;;
66458;Laerm;56835;52.198;4.826;2023-04-24T00:50:48;53.34;51.73;54.76;;
66458;Laerm;56835;52.198;4.826;2023-04-24T00:50:58;53.27;51.63;54.90;;
66458;Laerm;56835;52.198;4.826;2023-04-24T00:51:08;53.33;51.60;54.67;;
66458;Laerm;56835;52.198;4.826;2023-04-24T00:51:19;53.27;51.61;54.70;;
66458;Laerm;56835;52.198;4.826;2023-04-24T00:51:30;53.29;51.96;54.81;;
66458;Laerm;56835;52.198;4.826;2023-04-24T00:51:40;53.22;51.59;54.71;;
66458;Laerm;56835;52.198;4.826;2023-04-24T00:51:55;53.36;51.58;54.72;;
66458;Laerm;56835;52.198;4.826;2023-04-24T00:52:06;53.35;52.16;54.68;;
66458;Laerm;56835;52.198;4.826;2023-04-24T00:52:18;53.23;51.91;54.41;;
66458;Laerm;56835;52.198;4.826;2023-04-24T00:52:29;53.32;51.90;54.78;;
66458;Laerm;56835;52.198;4.826;2023-04-24T00:52:41;53.27;51.69;54.85;;
66458;Laerm;56835;52.198;4.826;2023-04-24T00:52:51;53.25;51.49;54.83;;
66458;Laerm;56835;52.198;4.826;2023-04-24T00:53:01;53.29;51.48;54.45;;
66458;Laerm;56835;52.198;4.826;2023-04-24T00:53:11;53.29;51.62;54.54;;
66458;Laerm;56835;52.198;4.826;2023-04-24T00:53:22;53.29;51.76;54.86;;
66458;Laerm;56835;52.198;4.826;2023-04-24T00:53:32;53.26;51.76;54.95;;
66458;Laerm;56835;52.198;4.826;2023-04-24T00:53:42;53.29;51.94;54.77;;
66458;Laerm;56835;52.198;4.826;2023-04-24T00:53:53;53.33;51.60;54.73;;
66458;Laerm;56835;52.198;4.826;2023-04-24T00:54:03;53.29;51.32;54.54;;
66458;Laerm;56835;52.198;4.826;2023-04-24T00:54:13;53.29;51.83;54.57;;
66458;Laerm;56835;52.198;4.826;2023-04-24T00:54:23;53.27;51.40;54.79;;
66458;Laerm;56835;52.198;4.826;2023-04-24T00:54:34;53.26;51.42;54.54;;
66458;Laerm;56835;52.198;4.826;2023-04-24T00:54:45;53.30;51.54;54.55;;
66458;Laerm;56835;52.198;4.826;2023-04-24T00:54:55;53.27;51.64;54.77;;
66458;Laerm;56835;52.198;4.826;2023-04-24T00:55:05;53.33;51.83;54.58;;
66458;Laerm;56835;52.198;4.826;2023-04-24T00:55:16;53.27;51.34;54.54;;
66458;Laerm;56835;52.198;4.826;2023-04-24T00:55:26;53.29;51.26;54.53;;
66458;Laerm;56835;52.198;4.826;2023-04-24T00:55:36;53.24;51.23;54.54;;
66458;Laerm;56835;52.198;4.826;2023-04-24T00:55:47;53.26;51.58;54.66;;
66458;Laerm;56835;52.198;4.826;2023-04-24T00:55:57;53.29;51.80;54.65;;
66458;Laerm;56835;52.198;4.826;2023-04-24T00:56:08;53.30;51.55;54.62;;
66458;Laerm;56835;52.198;4.826;2023-04-24T00:56:18;53.33;52.02;54.56;;
66458;Laerm;56835;52.198;4.826;2023-04-24T00:56:28;53.33;51.24;54.62;;
66458;Laerm;56835;52.198;4.826;2023-04-24T00:56:39;53.26;51.97;54.75;;
66458;Laerm;56835;52.198;4.826;2023-04-24T00:56:50;53.22;51.61;55.03;;
66458;Laerm;56835;52.198;4.826;2023-04-24T00:57:02;53.23;51.02;54.52;;
66458;Laerm;56835;52.198;4.826;2023-04-24T00:57:13;53.30;51.61;54.96;;
66458;Laerm;56835;52.198;4.826;2023-04-24T00:57:24;53.32;51.33;54.79;;
66458;Laerm;56835;52.198;4.826;2023-04-24T00:57:35;53.28;51.68;54.52;;
66458;Laerm;56835;52.198;4.826;2023-04-24T00:57:45;53.25;51.70;54.85;;
66458;Laerm;56835;52.198;4.826;2023-04-24T00:57:56;53.24;51.64;55.25;;
66458;Laerm;56835;52.198;4.826;2023-04-24T00:58:07;53.27;51.51;54.68;;
66458;Laerm;56835;52.198;4.826;2023-04-24T00:58:17;53.25;51.95;54.69;;
66458;Laerm;56835;52.198;4.826;2023-04-24T00:58:28;53.26;51.79;54.38;;
66458;Laerm;56835;52.198;4.826;2023-04-24T00:58:39;53.22;51.78;55.00;;
66458;Laerm;56835;52.198;4.826;2023-04-24T00:58:50;53.23;51.57;54.96;;
66458;Laerm;56835;52.198;4.826;2023-04-24T00:59:00;53.30;51.83;54.54;;
66458;Laerm;56835;52.198;4.826;2023-04-24T00:59:11;53.29;51.44;54.82;;
66458;Laerm;56835;52.198;4.826;2023-04-24T00:59:22;53.27;51.51;54.47;;
66458;Laerm;56835;52.198;4.826;2023-04-24T00:59:32;53.25;51.30;54.71;;
66458;Laerm;56835;52.198;4.826;2023-04-24T00:59:42;53.33;51.99;54.66;;